createdAt,value
2023-01-09T00:00:15.993Z,71.88
2023-01-09T00:05:22.617Z,75.30
2023-01-09T00:10:28.977Z,75.05
2023-01-09T00:20:40.638Z,71.25
2023-01-09T00:30:58.716Z,81.18
2023-01-09T00:36:05.609Z,82.63
2023-01-09T00:41:14.755Z,80.90
2023-01-09T00:46:21.545Z,72.90
2023-01-09T00:51:27.846Z,73.13
2023-01-09T00:56:34.564Z,77.13
2023-01-09T01:07:04.581Z,69.45
2023-01-09T01:12:13.537Z,76.85
2023-01-09T01:17:20.110Z,70.45
2023-01-09T01:22:26.298Z,74.15
2023-01-09T01:27:33.323Z,67.25
2023-01-09T01:32:40.587Z,75.40
2023-01-09T01:37:47.347Z,76.22
2023-01-09T01:42:55.927Z,67.47
2023-01-09T01:48:05.809Z,71.43
2023-01-09T01:53:12.653Z,76.45
2023-01-09T01:58:20.056Z,71.15
2023-01-09T02:03:28.768Z,62.78
2023-01-09T02:08:35.287Z,75.70
2023-01-09T02:18:58.979Z,71.57
2023-01-09T02:24:14.136Z,59.05
2023-01-09T02:29:35.307Z,66.75
2023-01-09T02:35:04.325Z,53.47
2023-01-09T02:40:25.680Z,52.47
2023-01-09T02:45:32.548Z,69.53
2023-01-09T02:51:07.748Z,68.60
2023-01-09T02:56:32.487Z,64.13
2023-01-09T03:01:47.968Z,63.38
2023-01-09T03:07:11.213Z,63.50
2023-01-09T03:12:20.694Z,79.15
2023-01-09T03:17:32.950Z,76.18
2023-01-09T03:22:39.292Z,81.78
2023-01-09T03:27:45.833Z,94.40
2023-01-09T03:37:57.731Z,89.28
2023-01-09T03:43:03.647Z,51.42
2023-01-09T03:48:10.223Z,89.68
2023-01-09T03:53:16.642Z,88.38
2023-01-09T04:03:28.354Z,57.17
2023-01-09T04:08:34.932Z,69.35
2023-01-09T04:13:41.276Z,63.13
2023-01-09T04:18:47.698Z,84.97
2023-01-09T04:23:53.727Z,109.55
2023-01-09T04:28:59.609Z,68.95
2023-01-09T04:34:06.121Z,61.25
2023-01-09T04:39:12.584Z,78.63
2023-01-09T04:44:21.361Z,94.45
2023-01-09T04:49:27.928Z,63.35
2023-01-09T04:59:39.626Z,73.00
2023-01-09T05:04:46.160Z,107.07
2023-01-09T05:09:52.640Z,75.97
2023-01-09T05:15:04.019Z,51.70
2023-01-09T05:20:11.133Z,66.63
2023-01-09T05:25:17.799Z,87.72
2023-01-09T05:30:24.566Z,96.25
2023-01-09T05:35:32.480Z,85.50
2023-01-09T05:40:40.771Z,114.47
2023-01-09T05:45:49.103Z,89.95
2023-01-09T05:50:55.908Z,48.90
2023-01-09T05:56:02.550Z,108.20
2023-01-09T06:01:10.244Z,119.68
2023-01-09T06:06:16.887Z,120.30
2023-01-09T06:11:27.438Z,109.40
2023-01-09T06:16:35.610Z,93.05
2023-01-09T06:21:42.435Z,109.68
2023-01-09T06:26:52.019Z,114.93
2023-01-09T06:32:02.169Z,116.50
2023-01-09T06:37:10.905Z,117.88
2023-01-09T06:42:19.540Z,118.60
2023-01-09T06:47:27.758Z,122.25
2023-01-09T06:52:34.490Z,106.72
2023-01-09T06:57:41.521Z,84.15
2023-01-09T07:02:48.617Z,116.72
2023-01-09T07:07:55.134Z,104.60
2023-01-09T07:13:01.559Z,110.63
2023-01-09T07:23:16.126Z,115.35
2023-01-09T07:28:22.004Z,104.32
2023-01-09T07:33:28.243Z,100.15
2023-01-09T07:38:37.343Z,112.75
2023-01-09T07:43:43.692Z,113.60
2023-01-09T07:53:55.420Z,112.38
2023-01-09T07:59:01.513Z,118.32
2023-01-09T08:04:08.070Z,118.18
2023-01-09T08:09:15.658Z,116.57
2023-01-09T08:14:21.883Z,115.43
2023-01-09T08:19:27.616Z,120.35
2023-01-09T08:24:34.639Z,128.25
2023-01-09T08:29:41.670Z,114.28
2023-01-09T08:34:47.888Z,118.75
2023-01-09T08:45:17.798Z,117.18
2023-01-09T08:50:23.516Z,107.03
2023-01-09T08:55:29.531Z,112.20
2023-01-09T09:00:35.801Z,104.82
2023-01-09T09:10:47.037Z,112.68
2023-01-09T09:15:53.578Z,111.07
2023-01-09T09:21:00.643Z,117.32
2023-01-09T09:26:07.557Z,122.53
2023-01-09T09:31:14.213Z,117.50
2023-01-09T09:36:20.730Z,119.32
2023-01-09T09:41:55.781Z,119.25
2023-01-09T09:47:09.240Z,117.60
2023-01-09T09:52:18.214Z,114.30
2023-01-09T09:57:28.293Z,114.75
2023-01-09T10:02:42.953Z,110.47
2023-01-09T10:07:54.082Z,119.25
2023-01-09T10:13:25.940Z,116.20
2023-01-09T10:18:48.260Z,117.53
2023-01-09T10:24:09.729Z,116.78
2023-01-09T10:29:16.154Z,120.07
2023-01-09T10:39:34.625Z,127.18
2023-01-09T10:44:46.484Z,123.18
2023-01-09T10:49:54.029Z,118.05
2023-01-09T10:55:04.266Z,116.28
2023-01-09T11:00:14.678Z,118.13
2023-01-09T11:05:32.937Z,118.28
2023-01-09T11:10:55.840Z,128.70
2023-01-09T11:16:17.558Z,131.18
2023-01-09T11:21:24.569Z,130.32
2023-01-09T11:26:31.965Z,149.65
2023-01-09T11:31:39.706Z,135.70
2023-01-09T11:36:46.504Z,150.07
2023-01-09T11:41:56.655Z,149.32
2023-01-09T11:47:06.507Z,151.80
2023-01-09T11:52:12.765Z,156.90
2023-01-09T11:57:21.288Z,155.95
2023-01-09T12:02:42.150Z,148.35
2023-01-09T12:07:54.301Z,155.73
2023-01-09T12:13:22.661Z,148.68
2023-01-09T12:18:43.349Z,143.00
2023-01-09T12:23:58.426Z,157.60
2023-01-09T12:29:12.559Z,167.75
2023-01-09T12:34:30.180Z,151.20
2023-01-09T12:40:01.310Z,153.23
2023-01-09T12:45:25.406Z,161.88
2023-01-09T12:55:53.877Z,163.27
2023-01-09T13:06:54.674Z,154.55
2023-01-09T13:13:03.047Z,157.65
2023-01-09T13:18:46.760Z,157.55
2023-01-09T13:25:16.450Z,161.68
2023-01-09T13:30:47.084Z,177.02
2023-01-09T13:41:50.656Z,144.43
2023-01-09T13:47:09.556Z,184.65
2023-01-09T13:53:14.423Z,158.70
2023-01-09T13:58:30.387Z,161.27
2023-01-09T14:03:46.288Z,146.30
2023-01-09T14:09:15.056Z,134.02
2023-01-09T14:14:33.117Z,147.60
2023-01-09T14:19:50.951Z,133.45
2023-01-09T14:25:18.904Z,125.05
2023-01-09T14:30:52.893Z,137.43
2023-01-09T14:36:29.323Z,97.57
2023-01-09T14:42:26.818Z,140.13
2023-01-09T14:53:35.879Z,157.05
2023-01-09T14:58:51.471Z,163.95
2023-01-09T15:09:41.222Z,154.48
2023-01-09T15:20:20.143Z,156.88
2023-01-09T15:25:40.745Z,153.70
2023-01-09T15:30:54.819Z,140.10
2023-01-09T15:36:04.603Z,143.38
2023-01-09T15:41:18.981Z,141.13
2023-01-09T15:46:32.729Z,150.93
2023-01-09T15:51:39.659Z,145.95
2023-01-09T15:56:53.312Z,141.32
2023-01-09T16:02:24.399Z,133.95
2023-01-09T16:07:40.382Z,136.48
2023-01-09T16:12:57.477Z,134.00
2023-01-09T16:18:27.186Z,131.05
2023-01-09T16:23:38.218Z,127.07
2023-01-09T16:28:44.829Z,122.55
2023-01-09T16:33:54.995Z,124.60
2023-01-09T16:39:02.892Z,119.65
2023-01-09T16:44:11.359Z,111.53
2023-01-09T16:49:17.643Z,118.78
2023-01-09T16:59:30.399Z,114.22
2023-01-09T17:04:49.792Z,108.88
2023-01-09T17:09:55.944Z,119.05
2023-01-09T17:15:04.087Z,108.25
2023-01-09T17:20:29.492Z,122.70
2023-01-09T17:25:54.139Z,119.30
2023-01-09T17:31:00.164Z,117.53
2023-01-09T17:36:07.146Z,120.80
2023-01-09T17:41:15.847Z,116.88
2023-01-09T17:46:26.421Z,122.53
2023-01-09T17:51:32.387Z,116.70
2023-01-09T17:56:39.198Z,113.68
2023-01-09T18:01:46.444Z,114.05
2023-01-09T18:06:52.615Z,112.63
2023-01-09T18:17:04.130Z,113.55
2023-01-09T18:22:10.190Z,113.90
2023-01-09T18:32:21.598Z,110.95
2023-01-09T18:42:32.931Z,115.80
2023-01-09T18:52:48.182Z,111.95
2023-01-09T18:57:54.420Z,108.00
2023-01-09T19:03:00.881Z,111.82
2023-01-09T19:13:28.579Z,115.10
2023-01-09T19:42:10.890Z,110.95
2023-01-09T19:47:17.198Z,114.82
2023-01-09T19:57:30.037Z,118.82
2023-01-09T20:02:36.166Z,116.03
2023-01-09T20:07:43.358Z,116.03
2023-01-09T20:12:49.302Z,113.47
2023-01-09T20:17:55.307Z,111.73
2023-01-09T20:28:06.233Z,115.50
2023-01-09T20:33:12.605Z,116.03
2023-01-09T20:38:19.256Z,110.63
2023-01-09T20:43:26.722Z,114.38
2023-01-09T20:48:33.318Z,119.85
2023-01-09T20:53:39.301Z,117.80
2023-01-09T20:58:45.445Z,113.90
2023-01-09T21:03:52.585Z,115.00
2023-01-09T21:08:58.638Z,118.30
2023-01-09T21:14:04.253Z,112.32
2023-01-09T21:19:10.410Z,113.70
2023-01-09T21:29:21.786Z,116.60
2023-01-09T21:34:27.650Z,116.77
2023-01-09T21:39:34.025Z,115.88
2023-01-09T21:50:04.686Z,116.47
2023-01-09T21:55:11.035Z,114.07
2023-01-09T22:05:23.038Z,114.63
2023-01-09T22:10:28.971Z,118.57
2023-01-09T22:15:35.399Z,120.30
2023-01-09T22:20:41.325Z,117.45
2023-01-09T22:25:47.407Z,116.68
2023-01-09T22:30:53.446Z,117.55
2023-01-09T22:35:59.265Z,122.40
2023-01-09T22:41:05.238Z,118.15
2023-01-09T22:46:12.161Z,124.15
2023-01-09T22:51:21.483Z,122.15
2023-01-09T22:56:27.480Z,123.68
2023-01-09T23:01:33.999Z,123.20
2023-01-09T23:06:40.385Z,122.38
2023-01-09T23:12:14.553Z,126.20
2023-01-09T23:17:20.788Z,128.02
2023-01-09T23:22:27.535Z,124.50
2023-01-09T23:27:33.457Z,125.35
2023-01-09T23:32:39.991Z,124.63
2023-01-09T23:43:09.794Z,112.93
2023-01-09T23:48:16.704Z,110.95
2023-01-09T23:53:23.317Z,117.65
2023-01-09T23:58:29.520Z,136.10
